sensor_id;sensor_type;location;lat;lon;timestamp;P1;P2;P0
57563;PMS7003;43400;45.926;6.724;2023-02-12T00:00:12;54.00;49.50;33.50
57563;PMS7003;43400;45.926;6.724;2023-02-12T00:02:45;61.75;51.50;33.00
57563;PMS7003;43400;45.926;6.724;2023-02-12T00:05:17;65.00;55.50;35.50
57563;PMS7003;43400;45.926;6.724;2023-02-12T00:07:49;76.50;63.00;41.50
57563;PMS7003;43400;45.926;6.724;2023-02-12T00:10:22;77.50;63.75;42.50
57563;PMS7003;43400;45.926;6.724;2023-02-12T00:12:54;70.75;57.00;39.00
57563;PMS7003;43400;45.926;6.724;2023-02-12T00:15:26;66.00;55.50;35.75
57563;PMS7003;43400;45.926;6.724;2023-02-12T00:17:59;68.00;58.33;36.67
57563;PMS7003;43400;45.926;6.724;2023-02-12T00:20:31;64.60;52.80;34.00
57563;PMS7003;43400;45.926;6.724;2023-02-12T00:23:04;66.75;52.25;35.00
57563;PMS7003;43400;45.926;6.724;2023-02-12T00:25:39;65.20;55.20;37.00
57563;PMS7003;43400;45.926;6.724;2023-02-12T00:28:12;70.75;57.75;37.00
57563;PMS7003;43400;45.926;6.724;2023-02-12T00:30:44;69.25;56.50;36.50
57563;PMS7003;43400;45.926;6.724;2023-02-12T00:33:16;69.40;58.80;37.00
57563;PMS7003;43400;45.926;6.724;2023-02-12T00:35:55;67.00;57.00;36.00
57563;PMS7003;43400;45.926;6.724;2023-02-12T00:38:27;66.25;55.25;34.00
57563;PMS7003;43400;45.926;6.724;2023-02-12T00:40:59;65.00;55.00;37.00
57563;PMS7003;43400;45.926;6.724;2023-02-12T00:43:31;69.20;58.00;36.80
57563;PMS7003;43400;45.926;6.724;2023-02-12T00:46:04;71.67;58.67;39.33
57563;PMS7003;43400;45.926;6.724;2023-02-12T00:48:36;70.00;58.25;39.00
57563;PMS7003;43400;45.926;6.724;2023-02-12T00:51:08;72.00;59.60;37.40
57563;PMS7003;43400;45.926;6.724;2023-02-12T00:53:40;73.00;60.80;37.80
57563;PMS7003;43400;45.926;6.724;2023-02-12T00:56:15;68.00;55.50;39.00
57563;PMS7003;43400;45.926;6.724;2023-02-12T00:58:46;62.00;52.80;34.00
57563;PMS7003;43400;45.926;6.724;2023-02-12T01:01:18;65.00;54.00;34.00
57563;PMS7003;43400;45.926;6.724;2023-02-12T01:03:50;66.20;55.80;33.60
57563;PMS7003;43400;45.926;6.724;2023-02-12T01:06:22;67.00;55.00;35.75
57563;PMS7003;43400;45.926;6.724;2023-02-12T01:08:54;68.25;57.50;34.75
57563;PMS7003;43400;45.926;6.724;2023-02-12T01:11:26;67.60;55.60;37.80
57563;PMS7003;43400;45.926;6.724;2023-02-12T01:13:58;60.50;52.50;34.00
57563;PMS7003;43400;45.926;6.724;2023-02-12T01:16:31;66.00;54.25;34.50
57563;PMS7003;43400;45.926;6.724;2023-02-12T01:19:03;65.75;54.50;33.00
57563;PMS7003;43400;45.926;6.724;2023-02-12T01:21:35;56.75;50.00;32.00
57563;PMS7003;43400;45.926;6.724;2023-02-12T01:24:07;56.20;48.20;32.00
57563;PMS7003;43400;45.926;6.724;2023-02-12T01:26:40;55.75;48.00;30.50
57563;PMS7003;43400;45.926;6.724;2023-02-12T01:29:13;61.00;53.00;33.50
57563;PMS7003;43400;45.926;6.724;2023-02-12T01:31:45;57.00;48.00;29.20
57563;PMS7003;43400;45.926;6.724;2023-02-12T01:34:17;48.50;44.00;29.00
57563;PMS7003;43400;45.926;6.724;2023-02-12T01:36:49;43.00;41.50;29.00
57563;PMS7003;43400;45.926;6.724;2023-02-12T01:39:20;45.00;43.00;27.40
57563;PMS7003;43400;45.926;6.724;2023-02-12T01:41:52;42.00;39.00;27.00
57563;PMS7003;43400;45.926;6.724;2023-02-12T01:44:28;41.00;36.00;26.75
57563;PMS7003;43400;45.926;6.724;2023-02-12T01:47:02;42.00;39.75;26.00
57563;PMS7003;43400;45.926;6.724;2023-02-12T01:49:39;39.20;37.40;27.00
57563;PMS7003;43400;45.926;6.724;2023-02-12T01:52:19;38.40;38.40;29.00
57563;PMS7003;43400;45.926;6.724;2023-02-12T01:55:01;45.00;40.80;29.00
57563;PMS7003;43400;45.926;6.724;2023-02-12T01:57:38;46.00;43.50;29.00
57563;PMS7003;43400;45.926;6.724;2023-02-12T02:00:14;49.00;44.25;29.00
57563;PMS7003;43400;45.926;6.724;2023-02-12T02:02:49;42.40;41.60;28.20
57563;PMS7003;43400;45.926;6.724;2023-02-12T02:05:42;46.60;40.60;28.40
57563;PMS7003;43400;45.926;6.724;2023-02-12T02:08:38;44.20;40.40;27.40
57563;PMS7003;43400;45.926;6.724;2023-02-12T02:11:11;41.00;37.50;26.25
57563;PMS7003;43400;45.926;6.724;2023-02-12T02:13:43;41.50;38.25;27.00
57563;PMS7003;43400;45.926;6.724;2023-02-12T02:16:22;39.00;37.00;26.00
57563;PMS7003;43400;45.926;6.724;2023-02-12T02:18:58;37.00;35.00;21.60
57563;PMS7003;43400;45.926;6.724;2023-02-12T02:27:17;38.25;36.50;27.50
57563;PMS7003;43400;45.926;6.724;2023-02-12T02:36:24;36.00;33.00;25.00
57563;PMS7003;43400;45.926;6.724;2023-02-12T02:39:09;29.00;27.00;22.00
57563;PMS7003;43400;45.926;6.724;2023-02-12T02:42:31;35.40;32.40;22.00
57563;PMS7003;43400;45.926;6.724;2023-02-12T02:45:18;32.20;30.60;23.20
57563;PMS7003;43400;45.926;6.724;2023-02-12T02:47:59;32.00;32.00;22.40
57563;PMS7003;43400;45.926;6.724;2023-02-12T02:50:31;33.75;32.50;23.00
57563;PMS7003;43400;45.926;6.724;2023-02-12T02:53:12;32.00;31.50;22.25
57563;PMS7003;43400;45.926;6.724;2023-02-12T02:55:50;30.00;28.80;19.60
57563;PMS7003;43400;45.926;6.724;2023-02-12T02:58:33;27.75;26.25;20.00
57563;PMS7003;43400;45.926;6.724;2023-02-12T03:01:11;27.00;26.00;18.50
57563;PMS7003;43400;45.926;6.724;2023-02-12T03:03:56;36.33;34.00;23.00
57563;PMS7003;43400;45.926;6.724;2023-02-12T03:07:03;37.33;36.00;23.00
57563;PMS7003;43400;45.926;6.724;2023-02-12T03:09:40;38.25;34.00;26.00
57563;PMS7003;43400;45.926;6.724;2023-02-12T03:12:52;35.00;33.25;24.00
57563;PMS7003;43400;45.926;6.724;2023-02-12T03:17:57;38.00;34.20;25.80
57563;PMS7003;43400;45.926;6.724;2023-02-12T03:20:32;34.60;33.20;25.00
57563;PMS7003;43400;45.926;6.724;2023-02-12T03:23:16;35.75;32.75;22.25
57563;PMS7003;43400;45.926;6.724;2023-02-12T03:25:54;34.50;34.25;24.00
57563;PMS7003;43400;45.926;6.724;2023-02-12T03:28:47;68.00;53.00;33.33
57563;PMS7003;43400;45.926;6.724;2023-02-12T03:36:50;32.60;30.40;23.00
57563;PMS7003;43400;45.926;6.724;2023-02-12T03:39:44;43.00;34.20;26.00
57563;PMS7003;43400;45.926;6.724;2023-02-12T03:42:31;44.40;42.60;28.20
57563;PMS7003;43400;45.926;6.724;2023-02-12T03:45:18;45.20;40.20;27.80
57563;PMS7003;43400;45.926;6.724;2023-02-12T03:49:15;52.00;47.50;32.50
57563;PMS7003;43400;45.926;6.724;2023-02-12T03:51:28;30.40;30.40;22.60
57563;PMS7003;43400;45.926;6.724;2023-02-12T03:54:00;39.00;36.50;25.00
57563;PMS7003;43400;45.926;6.724;2023-02-12T03:56:54;44.50;43.50;29.00
57563;PMS7003;43400;45.926;6.724;2023-02-12T03:59:34;41.50;40.00;26.75
57563;PMS7003;43400;45.926;6.724;2023-02-12T04:02:08;37.50;37.00;26.00
57563;PMS7003;43400;45.926;6.724;2023-02-12T04:04:40;50.50;44.00;29.00
57563;PMS7003;43400;45.926;6.724;2023-02-12T04:07:12;45.00;41.50;29.00
57563;PMS7003;43400;45.926;6.724;2023-02-12T04:09:44;34.75;34.75;24.50
57563;PMS7003;43400;45.926;6.724;2023-02-12T04:12:21;34.50;32.00;24.50
57563;PMS7003;43400;45.926;6.724;2023-02-12T04:18:31;42.00;34.40;25.00
57563;PMS7003;43400;45.926;6.724;2023-02-12T04:24:14;43.75;41.25;29.00
57563;PMS7003;43400;45.926;6.724;2023-02-12T04:27:11;36.00;36.00;24.00
57563;PMS7003;43400;45.926;6.724;2023-02-12T04:29:57;43.00;39.50;26.50
57563;PMS7003;43400;45.926;6.724;2023-02-12T04:35:27;41.00;38.40;24.20
57563;PMS7003;43400;45.926;6.724;2023-02-12T04:38:16;31.00;29.00;20.00
57563;PMS7003;43400;45.926;6.724;2023-02-12T04:40:56;37.33;35.00;22.67
57563;PMS7003;43400;45.926;6.724;2023-02-12T04:43:30;34.00;29.50;24.00
57563;PMS7003;43400;45.926;6.724;2023-02-12T04:46:04;34.75;34.00;22.00
57563;PMS7003;43400;45.926;6.724;2023-02-12T04:48:42;32.00;32.00;23.00
57563;PMS7003;43400;45.926;6.724;2023-02-12T04:51:23;31.50;27.50;20.75
57563;PMS7003;43400;45.926;6.724;2023-02-12T04:53:55;34.20;32.40;22.80
57563;PMS7003;43400;45.926;6.724;2023-02-12T04:56:27;34.75;30.50;20.00
57563;PMS7003;43400;45.926;6.724;2023-02-12T04:58:58;31.40;26.20;19.00
57563;PMS7003;43400;45.926;6.724;2023-02-12T05:01:32;46.33;41.67;26.67
57563;PMS7003;43400;45.926;6.724;2023-02-12T05:04:06;30.50;30.25;21.00
57563;PMS7003;43400;45.926;6.724;2023-02-12T05:06:40;28.25;27.25;20.50
57563;PMS7003;43400;45.926;6.724;2023-02-12T05:09:14;30.80;30.00;23.60
57563;PMS7003;43400;45.926;6.724;2023-02-12T05:11:48;28.00;28.00;20.50
57563;PMS7003;43400;45.926;6.724;2023-02-12T05:14:19;29.40;29.40;19.60
57563;PMS7003;43400;45.926;6.724;2023-02-12T05:16:55;34.80;33.40;25.60
57563;PMS7003;43400;45.926;6.724;2023-02-12T05:19:26;34.20;32.00;23.40
57563;PMS7003;43400;45.926;6.724;2023-02-12T05:21:58;31.50;28.50;21.75
57563;PMS7003;43400;45.926;6.724;2023-02-12T05:24:30;34.50;33.25;23.75
57563;PMS7003;43400;45.926;6.724;2023-02-12T05:27:01;29.00;29.00;22.50
57563;PMS7003;43400;45.926;6.724;2023-02-12T05:29:34;30.20;28.20;20.80
57563;PMS7003;43400;45.926;6.724;2023-02-12T05:32:06;30.80;29.40;21.00
57563;PMS7003;43400;45.926;6.724;2023-02-12T05:34:38;32.25;29.25;19.75
57563;PMS7003;43400;45.926;6.724;2023-02-12T05:37:10;30.40;28.00;22.00
57563;PMS7003;43400;45.926;6.724;2023-02-12T05:39:42;29.20;28.00;18.40
57563;PMS7003;43400;45.926;6.724;2023-02-12T05:42:14;31.00;31.00;20.50
57563;PMS7003;43400;45.926;6.724;2023-02-12T05:44:45;31.80;31.80;25.00
57563;PMS7003;43400;45.926;6.724;2023-02-12T05:47:17;26.60;25.20;20.20
57563;PMS7003;43400;45.926;6.724;2023-02-12T05:49:48;31.40;31.40;22.00
57563;PMS7003;43400;45.926;6.724;2023-02-12T05:52:20;32.20;30.00;21.00
57563;PMS7003;43400;45.926;6.724;2023-02-12T05:54:52;29.50;27.75;19.00
57563;PMS7003;43400;45.926;6.724;2023-02-12T05:57:24;35.40;34.20;22.00
57563;PMS7003;43400;45.926;6.724;2023-02-12T05:59:56;33.20;31.40;25.80
57563;PMS7003;43400;45.926;6.724;2023-02-12T06:02:27;36.50;34.50;22.00
57563;PMS7003;43400;45.926;6.724;2023-02-12T06:04:59;30.20;29.80;21.00
57563;PMS7003;43400;45.926;6.724;2023-02-12T06:07:31;28.00;27.80;20.60
57563;PMS7003;43400;45.926;6.724;2023-02-12T06:10:03;34.00;31.60;20.60
57563;PMS7003;43400;45.926;6.724;2023-02-12T06:12:35;31.40;31.00;21.00
57563;PMS7003;43400;45.926;6.724;2023-02-12T06:15:06;30.00;28.50;21.75
57563;PMS7003;43400;45.926;6.724;2023-02-12T06:17:38;35.67;33.33;21.67
57563;PMS7003;43400;45.926;6.724;2023-02-12T06:20:10;24.80;21.80;16.80
57563;PMS7003;43400;45.926;6.724;2023-02-12T06:22:42;29.75;28.50;21.25
57563;PMS7003;43400;45.926;6.724;2023-02-12T06:25:14;29.50;25.00;19.00
57563;PMS7003;43400;45.926;6.724;2023-02-12T06:27:45;29.00;27.00;21.00
57563;PMS7003;43400;45.926;6.724;2023-02-12T06:30:17;28.00;27.00;20.50
57563;PMS7003;43400;45.926;6.724;2023-02-12T06:32:49;31.00;30.00;21.75
57563;PMS7003;43400;45.926;6.724;2023-02-12T06:35:21;31.00;30.67;24.00
57563;PMS7003;43400;45.926;6.724;2023-02-12T06:37:53;44.00;43.20;27.80
57563;PMS7003;43400;45.926;6.724;2023-02-12T06:40:25;27.00;25.00;19.00
57563;PMS7003;43400;45.926;6.724;2023-02-12T06:42:57;24.00;22.50;16.50
57563;PMS7003;43400;45.926;6.724;2023-02-12T06:45:28;27.75;25.00;19.00
57563;PMS7003;43400;45.926;6.724;2023-02-12T06:48:00;33.00;30.00;22.00
57563;PMS7003;43400;45.926;6.724;2023-02-12T06:50:32;34.20;34.20;22.20
57563;PMS7003;43400;45.926;6.724;2023-02-12T06:53:04;28.00;27.25;21.00
57563;PMS7003;43400;45.926;6.724;2023-02-12T06:55:35;28.40;28.40;21.00
57563;PMS7003;43400;45.926;6.724;2023-02-12T06:58:07;47.00;45.00;31.00
57563;PMS7003;43400;45.926;6.724;2023-02-12T07:00:39;27.75;27.00;21.00
57563;PMS7003;43400;45.926;6.724;2023-02-12T07:03:11;33.00;31.00;23.50
57563;PMS7003;43400;45.926;6.724;2023-02-12T07:05:42;31.00;31.00;23.50
57563;PMS7003;43400;45.926;6.724;2023-02-12T07:08:14;43.75;40.25;27.75
57563;PMS7003;43400;45.926;6.724;2023-02-12T07:10:47;33.00;31.00;25.00
57563;PMS7003;43400;45.926;6.724;2023-02-12T07:13:19;39.00;36.00;23.50
57563;PMS7003;43400;45.926;6.724;2023-02-12T07:15:50;33.60;30.00;24.00
57563;PMS7003;43400;45.926;6.724;2023-02-12T07:18:22;30.80;30.20;22.00
57563;PMS7003;43400;45.926;6.724;2023-02-12T07:20:55;34.40;29.40;19.40
57563;PMS7003;43400;45.926;6.724;2023-02-12T07:23:27;31.00;30.00;22.00
57563;PMS7003;43400;45.926;6.724;2023-02-12T07:26:06;30.00;30.00;22.00
57563;PMS7003;43400;45.926;6.724;2023-02-12T07:28:39;26.75;25.00;19.00
57563;PMS7003;43400;45.926;6.724;2023-02-12T07:31:13;32.33;28.00;21.67
57563;PMS7003;43400;45.926;6.724;2023-02-12T07:33:46;36.40;35.20;22.40
57563;PMS7003;43400;45.926;6.724;2023-02-12T07:36:18;35.50;33.50;24.00
57563;PMS7003;43400;45.926;6.724;2023-02-12T07:38:50;42.80;39.80;29.20
57563;PMS7003;43400;45.926;6.724;2023-02-12T07:41:23;36.20;35.00;25.60
57563;PMS7003;43400;45.926;6.724;2023-02-12T07:44:06;43.75;41.25;28.75
57563;PMS7003;43400;45.926;6.724;2023-02-12T07:46:44;53.25;47.50;30.25
57563;PMS7003;43400;45.926;6.724;2023-02-12T07:49:19;79.67;64.33;41.00
57563;PMS7003;43400;45.926;6.724;2023-02-12T07:51:52;76.80;64.60;43.00
57563;PMS7003;43400;45.926;6.724;2023-02-12T07:54:24;77.40;64.40;41.00
57563;PMS7003;43400;45.926;6.724;2023-02-12T07:56:56;72.50;62.00;38.00
57563;PMS7003;43400;45.926;6.724;2023-02-12T07:59:27;72.50;60.50;38.00
57563;PMS7003;43400;45.926;6.724;2023-02-12T08:01:59;78.50;65.50;41.00
57563;PMS7003;43400;45.926;6.724;2023-02-12T08:04:31;78.75;66.00;43.00
57563;PMS7003;43400;45.926;6.724;2023-02-12T08:07:02;84.75;68.00;44.50
57563;PMS7003;43400;45.926;6.724;2023-02-12T08:09:34;84.75;68.75;42.00
57563;PMS7003;43400;45.926;6.724;2023-02-12T08:12:06;86.60;69.80;41.20
57563;PMS7003;43400;45.926;6.724;2023-02-12T08:14:37;79.00;63.75;39.75
57563;PMS7003;43400;45.926;6.724;2023-02-12T08:17:09;71.40;58.40;38.40
57563;PMS7003;43400;45.926;6.724;2023-02-12T08:19:41;70.50;58.25;37.25
57563;PMS7003;43400;45.926;6.724;2023-02-12T08:22:13;71.75;61.75;38.00
57563;PMS7003;43400;45.926;6.724;2023-02-12T08:24:46;59.25;49.25;32.00
57563;PMS7003;43400;45.926;6.724;2023-02-12T08:27:17;44.00;42.00;29.80
57563;PMS7003;43400;45.926;6.724;2023-02-12T08:29:49;53.80;47.60;31.60
57563;PMS7003;43400;45.926;6.724;2023-02-12T08:32:21;60.00;51.00;33.00
57563;PMS7003;43400;45.926;6.724;2023-02-12T08:34:53;63.50;51.50;33.50
57563;PMS7003;43400;45.926;6.724;2023-02-12T08:37:25;64.00;52.80;33.00
57563;PMS7003;43400;45.926;6.724;2023-02-12T08:39:56;63.25;51.25;35.00
57563;PMS7003;43400;45.926;6.724;2023-02-12T08:42:28;66.00;52.00;32.75
57563;PMS7003;43400;45.926;6.724;2023-02-12T08:45:00;53.60;48.00;31.20
57563;PMS7003;43400;45.926;6.724;2023-02-12T08:47:32;53.75;47.75;32.00
57563;PMS7003;43400;45.926;6.724;2023-02-12T08:50:04;49.20;45.00;30.60
57563;PMS7003;43400;45.926;6.724;2023-02-12T08:52:35;52.25;48.00;32.00
57563;PMS7003;43400;45.926;6.724;2023-02-12T08:55:07;58.80;51.00;35.00
57563;PMS7003;43400;45.926;6.724;2023-02-12T08:57:40;57.75;48.50;32.25
57563;PMS7003;43400;45.926;6.724;2023-02-12T09:00:12;54.25;47.00;29.00
57563;PMS7003;43400;45.926;6.724;2023-02-12T09:02:46;48.75;46.00;28.50
57563;PMS7003;43400;45.926;6.724;2023-02-12T09:05:18;51.00;47.00;32.00
57563;PMS7003;43400;45.926;6.724;2023-02-12T09:07:50;51.60;48.00;32.00
57563;PMS7003;43400;45.926;6.724;2023-02-12T09:10:22;51.25;47.25;30.25
57563;PMS7003;43400;45.926;6.724;2023-02-12T09:12:54;54.20;46.40;32.00
57563;PMS7003;43400;45.926;6.724;2023-02-12T09:15:26;54.50;48.50;33.50
57563;PMS7003;43400;45.926;6.724;2023-02-12T09:17:57;59.00;52.20;34.20
57563;PMS7003;43400;45.926;6.724;2023-02-12T09:20:29;61.25;51.75;34.75
57563;PMS7003;43400;45.926;6.724;2023-02-12T09:23:02;65.60;56.00;37.40
57563;PMS7003;43400;45.926;6.724;2023-02-12T09:25:33;42.00;40.50;27.50
57563;PMS7003;43400;45.926;6.724;2023-02-12T09:28:05;36.33;36.00;24.00
57563;PMS7003;43400;45.926;6.724;2023-02-12T09:30:37;26.00;23.75;18.00
57563;PMS7003;43400;45.926;6.724;2023-02-12T09:33:10;29.00;29.00;19.75
57563;PMS7003;43400;45.926;6.724;2023-02-12T09:35:42;29.25;26.75;18.25
57563;PMS7003;43400;45.926;6.724;2023-02-12T09:38:13;26.75;26.50;20.50
57563;PMS7003;43400;45.926;6.724;2023-02-12T09:40:49;30.80;29.00;19.60
57563;PMS7003;43400;45.926;6.724;2023-02-12T09:44:03;52.80;47.60;29.40
57563;PMS7003;43400;45.926;6.724;2023-02-12T09:50:05;45.00;43.50;28.00
57563;PMS7003;43400;45.926;6.724;2023-02-12T09:53:00;24.50;24.50;17.75
57563;PMS7003;43400;45.926;6.724;2023-02-12T09:55:32;40.00;37.75;26.25
57563;PMS7003;43400;45.926;6.724;2023-02-12T10:01:18;24.20;23.80;17.40
57563;PMS7003;43400;45.926;6.724;2023-02-12T10:03:52;22.25;21.00;17.00
57563;PMS7003;43400;45.926;6.724;2023-02-12T10:06:25;28.50;26.50;18.00
57563;PMS7003;43400;45.926;6.724;2023-02-12T10:09:09;24.40;21.80;18.80
57563;PMS7003;43400;45.926;6.724;2023-02-12T10:17:32;14.20;14.20;11.20
57563;PMS7003;43400;45.926;6.724;2023-02-12T10:26:17;15.00;13.20;10.40
57563;PMS7003;43400;45.926;6.724;2023-02-12T10:28:57;10.00;9.00;7.60
57563;PMS7003;43400;45.926;6.724;2023-02-12T10:31:42;13.60;13.60;9.40
57563;PMS7003;43400;45.926;6.724;2023-02-12T10:34:21;13.50;13.00;10.00
57563;PMS7003;43400;45.926;6.724;2023-02-12T10:36:57;13.20;13.20;9.20
57563;PMS7003;43400;45.926;6.724;2023-02-12T10:39:48;11.80;11.80;9.00
57563;PMS7003;43400;45.926;6.724;2023-02-12T10:42:32;16.50;15.00;10.75
57563;PMS7003;43400;45.926;6.724;2023-02-12T10:45:16;15.20;14.40;11.00
57563;PMS7003;43400;45.926;6.724;2023-02-12T10:47:51;15.25;14.75;11.00
57563;PMS7003;43400;45.926;6.724;2023-02-12T10:53:03;15.25;15.00;10.50
57563;PMS7003;43400;45.926;6.724;2023-02-12T10:55:35;14.00;13.00;11.00
57563;PMS7003;43400;45.926;6.724;2023-02-12T10:58:14;14.00;14.00;11.00
57563;PMS7003;43400;45.926;6.724;2023-02-12T11:00:57;14.25;14.00;12.00
57563;PMS7003;43400;45.926;6.724;2023-02-12T11:03:31;12.20;12.20;10.20
57563;PMS7003;43400;45.926;6.724;2023-02-12T11:09:19;11.40;10.40;8.40
57563;PMS7003;43400;45.926;6.724;2023-02-12T11:11:59;13.80;13.00;11.00
57563;PMS7003;43400;45.926;6.724;2023-02-12T11:14:31;10.20;10.20;8.00
57563;PMS7003;43400;45.926;6.724;2023-02-12T11:17:03;11.75;11.75;10.00
57563;PMS7003;43400;45.926;6.724;2023-02-12T11:19:35;11.50;11.50;9.50
57563;PMS7003;43400;45.926;6.724;2023-02-12T11:22:13;10.80;10.80;8.60
57563;PMS7003;43400;45.926;6.724;2023-02-12T11:24:46;9.40;8.40;7.20
57563;PMS7003;43400;45.926;6.724;2023-02-12T11:27:43;9.00;8.20;7.00
57563;PMS7003;43400;45.926;6.724;2023-02-12T11:31:04;8.33;8.00;7.00
57563;PMS7003;43400;45.926;6.724;2023-02-12T11:34:19;5.25;5.25;5.25
57563;PMS7003;43400;45.926;6.724;2023-02-12T11:36:52;3.80;3.80;3.60
57563;PMS7003;43400;45.926;6.724;2023-02-12T11:44:53;7.00;7.00;6.00
57563;PMS7003;43400;45.926;6.724;2023-02-12T11:47:31;8.00;8.00;7.00
57563;PMS7003;43400;45.926;6.724;2023-02-12T11:50:14;6.00;6.00;5.40
57563;PMS7003;43400;45.926;6.724;2023-02-12T11:52:57;9.00;9.00;8.00
57563;PMS7003;43400;45.926;6.724;2023-02-12T11:55:38;8.00;8.00;7.00
57563;PMS7003;43400;45.926;6.724;2023-02-12T12:01:04;7.00;7.00;6.00
57563;PMS7003;43400;45.926;6.724;2023-02-12T12:03:44;7.40;7.40;6.00
57563;PMS7003;43400;45.926;6.724;2023-02-12T12:14:54;5.00;5.00;3.00
57563;PMS7003;43400;45.926;6.724;2023-02-12T12:17:58;5.25;5.25;4.50
57563;PMS7003;43400;45.926;6.724;2023-02-12T12:23:34;9.20;9.20;8.00
57563;PMS7003;43400;45.926;6.724;2023-02-12T12:26:15;7.00;7.00;6.00
57563;PMS7003;43400;45.926;6.724;2023-02-12T12:31:46;9.00;9.00;7.00
57563;PMS7003;43400;45.926;6.724;2023-02-12T12:34:31;7.00;7.00;6.40
57563;PMS7003;43400;45.926;6.724;2023-02-12T12:37:13;8.00;7.20;6.20
57563;PMS7003;43400;45.926;6.724;2023-02-12T12:45:55;10.50;10.50;7.50
57563;PMS7003;43400;45.926;6.724;2023-02-12T13:09:19;7.00;7.00;6.25
57563;PMS7003;43400;45.926;6.724;2023-02-12T13:15:35;10.00;10.00;8.00
57563;PMS7003;43400;45.926;6.724;2023-02-12T13:20:59;8.80;8.80;8.20
57563;PMS7003;43400;45.926;6.724;2023-02-12T13:23:59;10.00;9.00;7.75
57563;PMS7003;43400;45.926;6.724;2023-02-12T13:26:48;9.00;9.00;7.25
57563;PMS7003;43400;45.926;6.724;2023-02-12T13:29:40;11.60;10.60;8.20
57563;PMS7003;43400;45.926;6.724;2023-02-12T13:35:30;11.00;11.00;9.00
57563;PMS7003;43400;45.926;6.724;2023-02-12T13:38:05;10.00;9.25;7.00
57563;PMS7003;43400;45.926;6.724;2023-02-12T13:40:39;9.80;9.80;8.00
57563;PMS7003;43400;45.926;6.724;2023-02-12T13:46:02;13.00;12.50;9.00
57563;PMS7003;43400;45.926;6.724;2023-02-12T13:48:50;15.75;14.75;10.25
57563;PMS7003;43400;45.926;6.724;2023-02-12T13:54:23;18.00;17.25;12.25
57563;PMS7003;43400;45.926;6.724;2023-02-12T13:57:15;17.00;17.00;12.25
57563;PMS7003;43400;45.926;6.724;2023-02-12T13:59:57;17.00;17.00;12.60
57563;PMS7003;43400;45.926;6.724;2023-02-12T14:07:59;15.75;15.75;12.00
57563;PMS7003;43400;45.926;6.724;2023-02-12T14:10:37;19.60;19.00;14.40
57563;PMS7003;43400;45.926;6.724;2023-02-12T14:15:53;21.33;20.67;16.00
57563;PMS7003;43400;45.926;6.724;2023-02-12T14:23:43;21.00;20.00;17.00
57563;PMS7003;43400;45.926;6.724;2023-02-12T14:31:35;17.20;16.20;13.20
57563;PMS7003;43400;45.926;6.724;2023-02-12T14:36:44;20.25;19.75;14.25
57563;PMS7003;43400;45.926;6.724;2023-02-12T14:44:56;18.80;17.40;13.40
57563;PMS7003;43400;45.926;6.724;2023-02-12T14:50:12;19.40;18.20;15.00
57563;PMS7003;43400;45.926;6.724;2023-02-12T14:52:50;25.50;23.00;15.00
57563;PMS7003;43400;45.926;6.724;2023-02-12T14:55:30;22.25;22.25;15.00
57563;PMS7003;43400;45.926;6.724;2023-02-12T14:58:04;22.60;22.60;16.80
57563;PMS7003;43400;45.926;6.724;2023-02-12T15:00:45;24.20;23.60;16.80
57563;PMS7003;43400;45.926;6.724;2023-02-12T15:03:21;20.20;19.60;15.80
57563;PMS7003;43400;45.926;6.724;2023-02-12T15:06:10;25.00;22.60;16.00
57563;PMS7003;43400;45.926;6.724;2023-02-12T15:08:50;24.00;22.80;14.40
57563;PMS7003;43400;45.926;6.724;2023-02-12T15:16:58;21.40;21.20;15.00
57563;PMS7003;43400;45.926;6.724;2023-02-12T15:19:43;22.00;21.75;15.25
57563;PMS7003;43400;45.926;6.724;2023-02-12T15:22:39;23.20;22.60;16.00
57563;PMS7003;43400;45.926;6.724;2023-02-12T15:25:15;24.50;24.50;15.00
57563;PMS7003;43400;45.926;6.724;2023-02-12T15:27:48;21.20;21.20;16.00
57563;PMS7003;43400;45.926;6.724;2023-02-12T15:30:23;20.00;20.00;14.00
57563;PMS7003;43400;45.926;6.724;2023-02-12T15:32:59;21.50;21.25;14.00
57563;PMS7003;43400;45.926;6.724;2023-02-12T15:35:35;23.00;22.75;17.00
57563;PMS7003;43400;45.926;6.724;2023-02-12T15:38:14;21.00;20.25;15.50
57563;PMS7003;43400;45.926;6.724;2023-02-12T15:40:57;25.40;24.00;16.60
57563;PMS7003;43400;45.926;6.724;2023-02-12T15:43:31;27.00;26.00;18.50
57563;PMS7003;43400;45.926;6.724;2023-02-12T15:46:05;30.00;30.00;20.00
57563;PMS7003;43400;45.926;6.724;2023-02-12T15:48:45;23.75;22.00;16.00
57563;PMS7003;43400;45.926;6.724;2023-02-12T15:51:32;27.33;27.00;17.00
57563;PMS7003;43400;45.926;6.724;2023-02-12T15:54:05;27.25;25.25;19.00
57563;PMS7003;43400;45.926;6.724;2023-02-12T15:56:38;29.00;27.80;20.20
57563;PMS7003;43400;45.926;6.724;2023-02-12T15:59:22;35.80;34.00;21.40
57563;PMS7003;43400;45.926;6.724;2023-02-12T16:01:58;34.20;32.20;21.60
57563;PMS7003;43400;45.926;6.724;2023-02-12T16:04:32;35.40;32.40;22.00
57563;PMS7003;43400;45.926;6.724;2023-02-12T16:07:05;34.60;31.60;21.00
57563;PMS7003;43400;45.926;6.724;2023-02-12T16:09:38;31.00;29.00;20.50
57563;PMS7003;43400;45.926;6.724;2023-02-12T16:12:12;38.00;35.20;23.20
57563;PMS7003;43400;45.926;6.724;2023-02-12T16:14:49;45.00;38.00;25.75
57563;PMS7003;43400;45.926;6.724;2023-02-12T16:20:23;36.00;33.20;23.00
57563;PMS7003;43400;45.926;6.724;2023-02-12T16:22:54;50.00;42.20;30.20
57563;PMS7003;43400;45.926;6.724;2023-02-12T16:25:28;64.00;52.20;34.20
57563;PMS7003;43400;45.926;6.724;2023-02-12T16:28:02;30.00;29.75;21.75
57563;PMS7003;43400;45.926;6.724;2023-02-12T16:31:10;24.25;23.25;17.50
57563;PMS7003;43400;45.926;6.724;2023-02-12T16:33:44;23.60;22.00;15.00
57563;PMS7003;43400;45.926;6.724;2023-02-12T16:38:54;20.33;18.00;12.00
57563;PMS7003;43400;45.926;6.724;2023-02-12T16:41:28;24.50;23.00;15.50
57563;PMS7003;43400;45.926;6.724;2023-02-12T16:46:43;18.75;14.75;12.25
57563;PMS7003;43400;45.926;6.724;2023-02-12T16:49:21;15.00;15.00;10.80
57563;PMS7003;43400;45.926;6.724;2023-02-12T16:52:16;18.00;16.50;11.50
57563;PMS7003;43400;45.926;6.724;2023-02-12T16:54:50;17.75;17.75;12.00
57563;PMS7003;43400;45.926;6.724;2023-02-12T16:57:22;17.25;16.00;11.00
57563;PMS7003;43400;45.926;6.724;2023-02-12T16:59:53;14.50;14.50;12.00
57563;PMS7003;43400;45.926;6.724;2023-02-12T17:02:25;17.50;16.50;12.50
57563;PMS7003;43400;45.926;6.724;2023-02-12T17:04:57;15.60;15.60;11.20
57563;PMS7003;43400;45.926;6.724;2023-02-12T17:07:28;21.50;19.00;13.00
57563;PMS7003;43400;45.926;6.724;2023-02-12T17:10:00;18.00;17.80;15.00
57563;PMS7003;43400;45.926;6.724;2023-02-12T17:12:32;17.50;17.00;13.50
57563;PMS7003;43400;45.926;6.724;2023-02-12T17:15:04;16.50;16.50;12.00
57563;PMS7003;43400;45.926;6.724;2023-02-12T17:17:35;17.00;17.00;15.00
57563;PMS7003;43400;45.926;6.724;2023-02-12T17:20:07;20.40;19.00;15.00
57563;PMS7003;43400;45.926;6.724;2023-02-12T17:22:40;17.00;17.00;14.00